UAL Aberdeen — PBHZ — position and weather

sailwx.info

Track history (hours):
 
Tides and Currents Weather Stations Pressure Air Temp Water Temp Dewpoint Dewpoint Depression Visibility Wind Speed Wind Dir Waves Ship Positions

UAL Aberdeen

Last reported at 2014-Sep-16 00:00 UTC. Time now 2014-Sep-16 04:59 UTC.
Position N 37°36' W 009°48'.

Length 129 m; beam 17 m.

Type: Cargo ship. MMSI: 244093964.

Wind from 170 at 25 knots

Waves 3.0 meters (10 feet), 5 second period

Barometer 1005.6 mb
Air temperature 20.8 ° C
Visibility: greater than 5.4 NM
Dewpoint 18.9 ° C

Date/timePositionNaut miles runAvg speedWind from/ knotsBaromVisibWave heightAir tempDewpointWater temp
2014-Sep-16 00:00N 37°36' W 009°48'1 1.2 170 / 251005.6 5.4 3.020.818.9
2014-Sep-15 23:31N 37°36' W 009°47'9 9.0
2014-Sep-15 22:30N 37°45' W 009°50'19 9.1
2014-Sep-15 20:25N 38°03' W 009°55'8 9.1
2014-Sep-15 19:32N 38°11' W 009°57'13 8.6
2014-Sep-15 18:00N 38°24' W 010°00'6611.0 190 / 201007.2 5.4 2.023.120.5
2014-Sep-15 12:00N 39°30' W 010°06'54 9.0 180 / 211010.2 5.4 2.023.919.421.0
2014-Sep-15 06:00N 40°24' W 010°06'12610.5 180 / 131008.8 5.4 1.022.017.9
2014-Sep-14 18:00N 42°30' W 010°06'6711.2 160 / 171009.7 5.4 1.021.818.8
2014-Sep-14 12:00N 43°36' W 009°48'55 9.1 170 / 211011.6 5.4 2.021.118.120.0
2014-Sep-14 06:00N 44°24' W 009°12'12810.7 110 / 71012.4 5.4 0.520.518.2
2014-Sep-13 18:00N 46°18' W 007°48'7612.6 100 / 61018.1 5.4 0.520.318.3
2014-Sep-13 12:00N 47°24' W 006°54'16 6.1 250 / 121020.9 5.4 1.520.916.320.1
2014-Sep-13 09:21N 47°39' W 006°47'33 9.8
2014-Sep-13 06:00N 48°06' W 006°18'6911.6 110 / 61020.7 5.4 0.518.015.1
2014-Sep-13 00:00N 49°00' W 005°12'52 8.7 090 / 61022.7 5.4 0.516.314.2
2014-Sep-12 18:00N 49°30' W 004°06'7612.7 080 / 101022.0 5.4 1.017.813.5
2014-Sep-12 12:00N 50°00' W 002°18'83 9.6 999 / 21023.2 5.4 0.518.315.022.0
2014-Sep-12 03:23N 50°28' W 000°16'2211.9
2014-Sep-12 01:33N 50°33' E 000°17'1010.3
2014-Sep-12 00:33N 50°36' E 000°33'9 9.3
2014-Sep-11 23:33N 50°42' E 000°45'9 9.3
2014-Sep-11 22:33N 50°48' E 000°56'2820.3
2014-Sep-11 21:12N 51°05' E 001°30'4 5.6
2014-Sep-11 20:34N 51°03' E 001°26'1413.8
2014-Sep-11 19:34N 51°12' E 001°42'1211.7
2014-Sep-11 18:34N 51°22' E 001°53'1010.2
2014-Sep-11 17:33N 51°30' E 002°02'9 9.3
2014-Sep-11 16:34N 51°37' E 002°12'1010.0
2014-Sep-11 15:33N 51°44' E 002°23'44 8.6
2014-Sep-11 10:25N 52°03' E 003°28'911.0
2014-Sep-11 09:34N 52°03' E 003°43'1110.5
2014-Sep-11 08:33N 52°01' E 003°59'1313.4
2014-Sep-11 07:33N 51°54' E 004°18'6 5.8
2014-Sep-11 06:33N 51°54' E 004°27'0 0.0
2014-Sep-11 05:33N 51°54' E 004°28'0 0.0
2014-Sep-11 04:33N 51°54' E 004°27'0 0.0
2014-Sep-11 03:33N 51°54' E 004°27'0 0.0
2014-Sep-11 02:30N 51°54' E 004°27'0 0.0
2014-Sep-11 01:33N 51°54' E 004°28'0 0.0
2014-Sep-11 00:33N 51°54' E 004°28'0 0.0
2014-Sep-10 23:30N 51°54' E 004°27'0 0.0
2014-Sep-10 22:33N 51°54' E 004°27'0 0.0
2014-Sep-10 21:33N 51°54' E 004°27'0 0.0
2014-Sep-10 20:33N 51°54' E 004°27'0 0.0
2014-Sep-10 19:33N 51°54' E 004°27'0 0.0
2014-Sep-10 18:33N 51°54' E 004°27'0 0.0
2014-Sep-10 17:33N 51°54' E 004°27'0 0.0
2014-Sep-10 16:33N 51°54' E 004°27'0 0.0
2014-Sep-10 15:31N 51°54' E 004°28'0 0.0
2014-Sep-10 14:31N 51°54' E 004°27'0 0.0
2014-Sep-10 13:31N 51°54' E 004°27'0 0.0
2014-Sep-10 12:33N 51°54' E 004°27'0 0.0
2014-Sep-10 11:33N 51°54' E 004°27'0 0.0
2014-Sep-10 10:33N 51°54' E 004°27'0 0.0
2014-Sep-10 09:33N 51°54' E 004°27'0 0.0
2014-Sep-10 08:33N 51°54' E 004°28'0 0.0
2014-Sep-10 07:31N 51°54' E 004°27'0 0.0
2014-Sep-10 06:32N 51°54' E 004°27'0 0.0
2014-Sep-10 05:32N 51°54' E 004°27'0 0.0
2014-Sep-10 04:32N 51°54' E 004°28'0 0.0
2014-Sep-10 03:32N 51°54' E 004°27'0 0.0
2014-Sep-10 02:32N 51°54' E 004°28'0 0.0
2014-Sep-10 01:29N 51°54' E 004°27'0 0.0
2014-Sep-10 00:32N 51°54' E 004°28'0 0.0
2014-Sep-09 23:31N 51°54' E 004°27'0 0.0
2014-Sep-09 22:31N 51°54' E 004°28'0 0.0
2014-Sep-09 21:31N 51°54' E 004°28'0 0.0
2014-Sep-09 20:31N 51°54' E 004°28'0 0.0
2014-Sep-09 19:31N 51°54' E 004°28'0 0.0
2014-Sep-09 18:31N 51°54' E 004°27'0 0.0
2014-Sep-09 17:31N 51°54' E 004°27'0 0.0
2014-Sep-09 16:31N 51°54' E 004°28'0 0.0
2014-Sep-09 15:31N 51°54' E 004°28'0 0.0
2014-Sep-09 14:31N 51°54' E 004°28'0 0.0
2014-Sep-09 13:31N 51°54' E 004°27'0 0.0
2014-Sep-09 12:32N 51°54' E 004°28'0 0.0
2014-Sep-09 11:32N 51°54' E 004°27'0 0.0
2014-Sep-09 10:32N 51°54' E 004°28'0 0.0
2014-Sep-09 09:32N 51°54' E 004°28'0 0.0
2014-Sep-09 08:32N 51°54' E 004°28'0 0.0
2014-Sep-09 07:32N 51°54' E 004°28'0 0.0
2014-Sep-09 06:32N 51°54' E 004°27'0 0.0
2014-Sep-09 05:32N 51°54' E 004°27'0 0.0
2014-Sep-09 04:32N 51°54' E 004°28'0 0.0
2014-Sep-09 03:31N 51°54' E 004°28'0 0.0
2014-Sep-09 02:31N 51°54' E 004°27'0 0.0
2014-Sep-09 01:31N 51°54' E 004°28'0 0.0
2014-Sep-09 00:28N 51°54' E 004°27'0 0.0
2014-Sep-08 23:31N 51°54' E 004°28'0 0.0
2014-Sep-08 22:31N 51°54' E 004°28'0 0.0
2014-Sep-08 21:31N 51°54' E 004°27'0 0.0
2014-Sep-08 20:31N 51°54' E 004°27'0 0.0
2014-Sep-08 19:28N 51°54' E 004°27'0 0.0
2014-Sep-08 18:31N 51°54' E 004°27'0 0.0
2014-Sep-08 17:31N 51°54' E 004°28'0 0.0
2014-Sep-08 16:31N 51°54' E 004°28'0 0.0
2014-Sep-08 15:33N 51°54' E 004°27'0 0.0
2014-Sep-08 14:29N 51°54' E 004°28'0 0.0
2014-Sep-08 13:27N 51°54' E 004°27'0 0.0
2014-Sep-08 12:33N 51°54' E 004°28'0 0.0
2014-Sep-08 11:33N 51°54' E 004°28'0 0.0
2014-Sep-08 10:32N 51°54' E 004°27'0 0.0
2014-Sep-08 09:32N 51°54' E 004°28'0 0.0
2014-Sep-08 08:33N 51°54' E 004°27'0 0.0
2014-Sep-08 07:33N 51°54' E 004°27'0 0.0
2014-Sep-08 06:33N 51°54' E 004°27'0 0.0
2014-Sep-08 05:32N 51°54' E 004°27'0 0.0
2014-Sep-08 04:32N 51°54' E 004°28'0 0.0
2014-Sep-08 03:32N 51°54' E 004°28'0 0.0
2014-Sep-08 02:31N 51°54' E 004°27'0 0.0
2014-Sep-08 01:31N 51°54' E 004°28'0 0.0
2014-Sep-08 00:31N 51°54' E 004°27'0 0.0
2014-Sep-07 23:28N 51°54' E 004°27'0 0.0
2014-Sep-07 22:31N 51°54' E 004°28'0 0.0
2014-Sep-07 21:31N 51°54' E 004°27'0 0.0
2014-Sep-07 20:31N 51°54' E 004°28'0 0.0
2014-Sep-07 19:31N 51°54' E 004°27'0 0.0
2014-Sep-07 18:31N 51°54' E 004°27'0 0.0
2014-Sep-07 17:31N 51°54' E 004°28'0 0.0
2014-Sep-07 16:31N 51°54' E 004°27'0 0.0
2014-Sep-07 15:31N 51°54' E 004°27'0 0.0
2014-Sep-07 14:31N 51°54' E 004°28'0 0.0
2014-Sep-07 13:33N 51°54' E 004°28'0 0.0
2014-Sep-07 12:33N 51°54' E 004°28'0 0.0
2014-Sep-07 11:32N 51°54' E 004°27'0 0.0
2014-Sep-07 10:32N 51°54' E 004°27'0 0.0
2014-Sep-07 09:32N 51°54' E 004°27'0 0.0
2014-Sep-07 08:33N 51°54' E 004°28'0 0.0
2014-Sep-07 07:33N 51°54' E 004°28'0 0.0
2014-Sep-07 06:32N 51°54' E 004°28'0 0.0
2014-Sep-07 05:31N 51°54' E 004°28'0 0.0
2014-Sep-07 04:31N 51°54' E 004°27'0 0.0
2014-Sep-07 03:31N 51°54' E 004°28'0 0.0
2014-Sep-07 02:31N 51°54' E 004°27'0 0.0
2014-Sep-07 01:31N 51°54' E 004°28'0 0.0
2014-Sep-07 00:31N 51°54' E 004°27'0 0.0
2014-Sep-06 23:31N 51°54' E 004°27'0 0.0
2014-Sep-06 22:31N 51°54' E 004°27'0 0.0
2014-Sep-06 21:31N 51°54' E 004°28'0 0.0
2014-Sep-06 20:31N 51°54' E 004°27'0 0.0
2014-Sep-06 19:31N 51°54' E 004°27'0 0.0
2014-Sep-06 18:31N 51°54' E 004°27'0 0.0
2014-Sep-06 17:31N 51°54' E 004°27'0 0.0
2014-Sep-06 16:31N 51°54' E 004°28'0 0.0
2014-Sep-06 15:31N 51°54' E 004°28'0 0.0
2014-Sep-06 14:33N 51°54' E 004°28'0 0.0
2014-Sep-06 13:33N 51°54' E 004°28'0 0.0
2014-Sep-06 12:33N 51°54' E 004°28'0 0.0
2014-Sep-06 11:32N 51°54' E 004°27'0 0.0
2014-Sep-06 10:32N 51°54' E 004°27'0 0.0
2014-Sep-06 09:32N 51°54' E 004°27'0 0.0
2014-Sep-06 08:32N 51°54' E 004°28'0 0.0
2014-Sep-06 07:32N 51°54' E 004°27'0 0.0
2014-Sep-06 06:33N 51°54' E 004°27'0 0.0
2014-Sep-06 05:33N 51°54' E 004°28'0 0.0
2014-Sep-06 04:33N 51°54' E 004°27'0 0.0
2014-Sep-06 03:33N 51°54' E 004°28'0 0.0
2014-Sep-06 02:33N 51°54' E 004°27'0 0.0
2014-Sep-06 01:33N 51°54' E 004°28'0 0.0
2014-Sep-06 00:33N 51°54' E 004°28'  
Track history (hours):
 
Tides and Currents Weather Stations Pressure Air Temp Water Temp Dewpoint Dewpoint Depression Visibility Wind Speed Wind Dir Waves Ship Positions

UAL Aberdeen

Last reported at 2014-Sep-16 00:00 UTC. Time now 2014-Sep-16 04:59 UTC.
Position N 37°36' W 009°48'.

Length 129 m; beam 17 m.

Type: Cargo ship. MMSI: 244093964.

Wind from 170 at 25 knots

Waves 3.0 meters (10 feet), 5 second period

Barometer 1005.6 mb
Air temperature 20.8 ° C
Visibility: greater than 5.4 NM
Dewpoint 18.9 ° C

Date/timePositionNaut miles runAvg speedWind from/ knotsBaromVisibWave heightAir tempDewpointWater temp
2014-Sep-16 00:00N 37°36' W 009°48'1 1.2 170 / 251005.6 5.4 3.020.818.9
2014-Sep-15 23:31N 37°36' W 009°47'9 9.0
2014-Sep-15 22:30N 37°45' W 009°50'19 9.1
2014-Sep-15 20:25N 38°03' W 009°55'8 9.1
2014-Sep-15 19:32N 38°11' W 009°57'13 8.6
2014-Sep-15 18:00N 38°24' W 010°00'6611.0 190 / 201007.2 5.4 2.023.120.5
2014-Sep-15 12:00N 39°30' W 010°06'54 9.0 180 / 211010.2 5.4 2.023.919.421.0
2014-Sep-15 06:00N 40°24' W 010°06'12610.5 180 / 131008.8 5.4 1.022.017.9
2014-Sep-14 18:00N 42°30' W 010°06'6711.2 160 / 171009.7 5.4 1.021.818.8
2014-Sep-14 12:00N 43°36' W 009°48'55 9.1 170 / 211011.6 5.4 2.021.118.120.0
2014-Sep-14 06:00N 44°24' W 009°12'12810.7 110 / 71012.4 5.4 0.520.518.2
2014-Sep-13 18:00N 46°18' W 007°48'7612.6 100 / 61018.1 5.4 0.520.318.3
2014-Sep-13 12:00N 47°24' W 006°54'16 6.1 250 / 121020.9 5.4 1.520.916.320.1
2014-Sep-13 09:21N 47°39' W 006°47'33 9.8
2014-Sep-13 06:00N 48°06' W 006°18'6911.6 110 / 61020.7 5.4 0.518.015.1
2014-Sep-13 00:00N 49°00' W 005°12'52 8.7 090 / 61022.7 5.4 0.516.314.2
2014-Sep-12 18:00N 49°30' W 004°06'7612.7 080 / 101022.0 5.4 1.017.813.5
2014-Sep-12 12:00N 50°00' W 002°18'83 9.6 999 / 21023.2 5.4 0.518.315.022.0
2014-Sep-12 03:23N 50°28' W 000°16'2211.9
2014-Sep-12 01:33N 50°33' E 000°17'1010.3
2014-Sep-12 00:33N 50°36' E 000°33'9 9.3
2014-Sep-11 23:33N 50°42' E 000°45'9 9.3
2014-Sep-11 22:33N 50°48' E 000°56'2820.3
2014-Sep-11 21:12N 51°05' E 001°30'4 5.6
2014-Sep-11 20:34N 51°03' E 001°26'1413.8
2014-Sep-11 19:34N 51°12' E 001°42'1211.7
2014-Sep-11 18:34N 51°22' E 001°53'1010.2
2014-Sep-11 17:33N 51°30' E 002°02'9 9.3
2014-Sep-11 16:34N 51°37' E 002°12'1010.0
2014-Sep-11 15:33N 51°44' E 002°23'44 8.6
2014-Sep-11 10:25N 52°03' E 003°28'911.0
2014-Sep-11 09:34N 52°03' E 003°43'1110.5
2014-Sep-11 08:33N 52°01' E 003°59'1313.4
2014-Sep-11 07:33N 51°54' E 004°18'6 5.8
2014-Sep-11 06:33N 51°54' E 004°27'0 0.0
2014-Sep-11 05:33N 51°54' E 004°28'0 0.0
2014-Sep-11 04:33N 51°54' E 004°27'0 0.0
2014-Sep-11 03:33N 51°54' E 004°27'0 0.0
2014-Sep-11 02:30N 51°54' E 004°27'0 0.0
2014-Sep-11 01:33N 51°54' E 004°28'0 0.0
2014-Sep-11 00:33N 51°54' E 004°28'0 0.0
2014-Sep-10 23:30N 51°54' E 004°27'0 0.0
2014-Sep-10 22:33N 51°54' E 004°27'0 0.0
2014-Sep-10 21:33N 51°54' E 004°27'0 0.0
2014-Sep-10 20:33N 51°54' E 004°27'0 0.0
2014-Sep-10 19:33N 51°54' E 004°27'0 0.0
2014-Sep-10 18:33N 51°54' E 004°27'0 0.0
2014-Sep-10 17:33N 51°54' E 004°27'0 0.0
2014-Sep-10 16:33N 51°54' E 004°27'0 0.0
2014-Sep-10 15:31N 51°54' E 004°28'0 0.0
2014-Sep-10 14:31N 51°54' E 004°27'0 0.0
2014-Sep-10 13:31N 51°54' E 004°27'0 0.0
2014-Sep-10 12:33N 51°54' E 004°27'0 0.0
2014-Sep-10 11:33N 51°54' E 004°27'0 0.0
2014-Sep-10 10:33N 51°54' E 004°27'0 0.0
2014-Sep-10 09:33N 51°54' E 004°27'0 0.0
2014-Sep-10 08:33N 51°54' E 004°28'0 0.0
2014-Sep-10 07:31N 51°54' E 004°27'0 0.0
2014-Sep-10 06:32N 51°54' E 004°27'0 0.0
2014-Sep-10 05:32N 51°54' E 004°27'0 0.0
2014-Sep-10 04:32N 51°54' E 004°28'0 0.0
2014-Sep-10 03:32N 51°54' E 004°27'0 0.0
2014-Sep-10 02:32N 51°54' E 004°28'0 0.0
2014-Sep-10 01:29N 51°54' E 004°27'0 0.0
2014-Sep-10 00:32N 51°54' E 004°28'0 0.0
2014-Sep-09 23:31N 51°54' E 004°27'0 0.0
2014-Sep-09 22:31N 51°54' E 004°28'0 0.0
2014-Sep-09 21:31N 51°54' E 004°28'0 0.0
2014-Sep-09 20:31N 51°54' E 004°28'0 0.0
2014-Sep-09 19:31N 51°54' E 004°28'0 0.0
2014-Sep-09 18:31N 51°54' E 004°27'0 0.0
2014-Sep-09 17:31N 51°54' E 004°27'0 0.0
2014-Sep-09 16:31N 51°54' E 004°28'0 0.0
2014-Sep-09 15:31N 51°54' E 004°28'0 0.0
2014-Sep-09 14:31N 51°54' E 004°28'0 0.0
2014-Sep-09 13:31N 51°54' E 004°27'0 0.0
2014-Sep-09 12:32N 51°54' E 004°28'0 0.0
2014-Sep-09 11:32N 51°54' E 004°27'0 0.0
2014-Sep-09 10:32N 51°54' E 004°28'0 0.0
2014-Sep-09 09:32N 51°54' E 004°28'0 0.0
2014-Sep-09 08:32N 51°54' E 004°28'0 0.0
2014-Sep-09 07:32N 51°54' E 004°28'0 0.0
2014-Sep-09 06:32N 51°54' E 004°27'0 0.0
2014-Sep-09 05:32N 51°54' E 004°27'0 0.0
2014-Sep-09 04:32N 51°54' E 004°28'0 0.0
2014-Sep-09 03:31N 51°54' E 004°28'0 0.0
2014-Sep-09 02:31N 51°54' E 004°27'0 0.0
2014-Sep-09 01:31N 51°54' E 004°28'0 0.0
2014-Sep-09 00:28N 51°54' E 004°27'0 0.0
2014-Sep-08 23:31N 51°54' E 004°28'0 0.0
2014-Sep-08 22:31N 51°54' E 004°28'0 0.0
2014-Sep-08 21:31N 51°54' E 004°27'0 0.0
2014-Sep-08 20:31N 51°54' E 004°27'0 0.0
2014-Sep-08 19:28N 51°54' E 004°27'0 0.0
2014-Sep-08 18:31N 51°54' E 004°27'0 0.0
2014-Sep-08 17:31N 51°54' E 004°28'0 0.0
2014-Sep-08 16:31N 51°54' E 004°28'0 0.0
2014-Sep-08 15:33N 51°54' E 004°27'0 0.0
2014-Sep-08 14:29N 51°54' E 004°28'0 0.0
2014-Sep-08 13:27N 51°54' E 004°27'0 0.0
2014-Sep-08 12:33N 51°54' E 004°28'0 0.0
2014-Sep-08 11:33N 51°54' E 004°28'0 0.0
2014-Sep-08 10:32N 51°54' E 004°27'0 0.0
2014-Sep-08 09:32N 51°54' E 004°28'0 0.0
2014-Sep-08 08:33N 51°54' E 004°27'0 0.0
2014-Sep-08 07:33N 51°54' E 004°27'0 0.0
2014-Sep-08 06:33N 51°54' E 004°27'0 0.0
2014-Sep-08 05:32N 51°54' E 004°27'0 0.0
2014-Sep-08 04:32N 51°54' E 004°28'0 0.0
2014-Sep-08 03:32N 51°54' E 004°28'0 0.0
2014-Sep-08 02:31N 51°54' E 004°27'0 0.0
2014-Sep-08 01:31N 51°54' E 004°28'0 0.0
2014-Sep-08 00:31N 51°54' E 004°27'0 0.0
2014-Sep-07 23:28N 51°54' E 004°27'0 0.0
2014-Sep-07 22:31N 51°54' E 004°28'0 0.0
2014-Sep-07 21:31N 51°54' E 004°27'0 0.0
2014-Sep-07 20:31N 51°54' E 004°28'0 0.0
2014-Sep-07 19:31N 51°54' E 004°27'0 0.0
2014-Sep-07 18:31N 51°54' E 004°27'0 0.0
2014-Sep-07 17:31N 51°54' E 004°28'0 0.0
2014-Sep-07 16:31N 51°54' E 004°27'0 0.0
2014-Sep-07 15:31N 51°54' E 004°27'0 0.0
2014-Sep-07 14:31N 51°54' E 004°28'0 0.0
2014-Sep-07 13:33N 51°54' E 004°28'0 0.0
2014-Sep-07 12:33N 51°54' E 004°28'0 0.0
2014-Sep-07 11:32N 51°54' E 004°27'0 0.0
2014-Sep-07 10:32N 51°54' E 004°27'0 0.0
2014-Sep-07 09:32N 51°54' E 004°27'0 0.0
2014-Sep-07 08:33N 51°54' E 004°28'0 0.0
2014-Sep-07 07:33N 51°54' E 004°28'0 0.0
2014-Sep-07 06:32N 51°54' E 004°28'0 0.0
2014-Sep-07 05:31N 51°54' E 004°28'0 0.0
2014-Sep-07 04:31N 51°54' E 004°27'0 0.0
2014-Sep-07 03:31N 51°54' E 004°28'0 0.0
2014-Sep-07 02:31N 51°54' E 004°27'0 0.0
2014-Sep-07 01:31N 51°54' E 004°28'0 0.0
2014-Sep-07 00:31N 51°54' E 004°27'0 0.0
2014-Sep-06 23:31N 51°54' E 004°27'0 0.0
2014-Sep-06 22:31N 51°54' E 004°27'0 0.0
2014-Sep-06 21:31N 51°54' E 004°28'0 0.0
2014-Sep-06 20:31N 51°54' E 004°27'0 0.0
2014-Sep-06 19:31N 51°54' E 004°27'0 0.0
2014-Sep-06 18:31N 51°54' E 004°27'0 0.0
2014-Sep-06 17:31N 51°54' E 004°27'0 0.0
2014-Sep-06 16:31N 51°54' E 004°28'0 0.0
2014-Sep-06 15:31N 51°54' E 004°28'0 0.0
2014-Sep-06 14:33N 51°54' E 004°28'0 0.0
2014-Sep-06 13:33N 51°54' E 004°28'0 0.0
2014-Sep-06 12:33N 51°54' E 004°28'0 0.0
2014-Sep-06 11:32N 51°54' E 004°27'0 0.0
2014-Sep-06 10:32N 51°54' E 004°27'0 0.0
2014-Sep-06 09:32N 51°54' E 004°27'0 0.0
2014-Sep-06 08:32N 51°54' E 004°28'0 0.0
2014-Sep-06 07:32N 51°54' E 004°27'0 0.0
2014-Sep-06 06:33N 51°54' E 004°27'0 0.0
2014-Sep-06 05:33N 51°54' E 004°28'0 0.0
2014-Sep-06 04:33N 51°54' E 004°27'0 0.0
2014-Sep-06 03:33N 51°54' E 004°28'0 0.0
2014-Sep-06 02:33N 51°54' E 004°27'0 0.0
2014-Sep-06 01:33N 51°54' E 004°28'0 0.0
2014-Sep-06 00:33N 51°54' E 004°28'  

Dump ship's entire track history